Flight Track Log - Related Links

Times and Time Zones

All times are in EDT time to prevent confusion due to time zone crossing. See the SWA267 flight status page for this flight to view local times or setup timezone preferences in your user account.


Time Position Orientation Groundspeed Altitude Reporting Facility
EDT Latitude Longitude Course Direction KTS MPH feet Rate Location/Type
Thu 10:09:38 AM 28.4000 -81.3000 150° Southeast 168 193 600  Level Orlando TRACON
Thu 10:10:51 AM 28.3500 -81.2667 150° Southeast 219 252 2,800 1,986 Climbing Orlando TRACON
Thu 10:11:57 AM 28.3167 -81.2167 127° Southeast 238 274 5,200 2,381 Climbing Orlando TRACON
Thu 10:12:57 AM 28.3833 -81.1667 33° Northeast 283 326 7,800 2,800 Climbing Orlando TRACON
Thu 10:13:57 AM 28.4500 -81.1500 12° North 301 346 10,800 2,571 Climbing Orlando TRACON
Thu 10:15:31 AM 28.5978 -81.1972 344° North 353 406 14,400 2,338 Climbing Jacksonville Center
Thu 10:16:31 AM 28.6922 -81.2336 341° North 353 406 16,800 2,350 Climbing Jacksonville Center
Thu 10:17:31 AM 28.7928 -81.2722 341° North 363 418 19,100 2,150 Climbing Jacksonville Center
Thu 10:18:31 AM 28.8936 -81.3108 341° North 373 429 21,100 2,000 Climbing Jacksonville Center
Thu 10:19:31 AM 28.9983 -81.3494 342° North 389 448 23,100 1,900 Climbing Jacksonville Center
Thu 10:20:31 AM 29.1053 -81.3906 341° North 395 455 24,900 1,750 Climbing Jacksonville Center
Thu 10:21:31 AM 29.2222 -81.4031 355° North 412 474 26,600 1,750 Climbing Jacksonville Center
Thu 10:22:31 AM 29.3394 -81.4156 355° North 417 480 28,400 1,400 Climbing Jacksonville Center
Thu 10:23:31 AM 29.4564 -81.4211 358° North 417 480 29,400 1,550 Climbing Jacksonville Center
Thu 10:24:31 AM 29.5756 -81.4311 356° North 422 486 31,500 2,250 Climbing Jacksonville Center
Thu 10:25:31 AM 29.6864 -81.4439 354° North 415 478 33,900 1,650 Climbing Jacksonville Center
Thu 10:26:31 AM 29.7928 -81.4542 355° North 403 464 34,800 900 Climbing Jacksonville Center
Thu 10:27:31 AM 29.9036 -81.4644 355° North 392 451 35,700 850 Climbing Jacksonville Center
Thu 10:28:31 AM 30.0122 -81.4750 355° North 392 451 36,500 650 Climbing Jacksonville Center
Thu 10:29:31 AM 30.1208 -81.4853 355° North 387 445 37,000 250 Climbing Jacksonville Center
Thu 10:30:31 AM 30.2317 -81.4958 355° North 387 445 37,000  Level Jacksonville Center
Thu 10:31:31 AM 30.3425 -81.5061 355° North 393 452 37,000  Level Jacksonville Center
Thu 10:32:31 AM 30.4511 -81.4997 North 393 452 37,000  Level Jacksonville Center
Thu 10:33:31 AM 30.5614 -81.4886 North 388 447 37,000  Level Jacksonville Center
Thu 10:34:31 AM 30.6764 -81.4819 North 388 447 37,000  Level Jacksonville Center
Thu 10:35:31 AM 30.7828 -81.4708 North 393 452 37,000  Level Jacksonville Center
Thu 10:36:31 AM 30.8931 -81.4594 North 393 452 37,000  Level Jacksonville Center
Thu 10:37:31 AM 31.0039 -81.4528 North 393 452 37,000  Level Jacksonville Center
Thu 10:38:31 AM 31.1144 -81.4439 North 393 452 37,000  Level Jacksonville Center
Thu 10:39:31 AM 31.2139 -81.3792 29° Northeast 405 466 37,000  Level Jacksonville Center
Thu 10:40:31 AM 31.3111 -81.3072 32° Northeast 405 466 37,000  Level Jacksonville Center
Thu 10:41:31 AM 31.3958 -81.2350 36° Northeast 410 472 37,000  Level Jacksonville Center
Thu 10:42:31 AM 31.5011 -81.1553 33° Northeast 415 478 37,000  Level Jacksonville Center
Thu 10:43:31 AM 31.5878 -81.0853 35° Northeast 408 470 37,000  Level Jacksonville Center
Thu 10:44:31 AM 31.6911 -81.0028 34° Northeast 408 470 37,000  Level Jacksonville Center
Thu 10:45:31 AM 31.7861 -80.9300 33° Northeast 408 470 37,000  Level Jacksonville Center
Thu 10:46:31 AM 31.8725 -80.8597 35° Northeast 408 470 37,000  Level Jacksonville Center
Thu 10:47:31 AM 31.9797 -80.7764 33° Northeast 408 470 37,000  Level Jacksonville Center
Thu 10:48:31 AM 32.0661 -80.7058 35° Northeast 413 475 37,000  Level Jacksonville Center
Thu 10:49:31 AM 32.1753 -80.6197 34° Northeast 413 475 37,000  Level Jacksonville Center
Thu 10:50:31 AM 32.2742 -80.5411 34° Northeast 422 486 37,000  Level Jacksonville Center
Thu 10:51:31 AM 32.3728 -80.4600 35° Northeast 428 493 37,000  Level Jacksonville Center
Thu 10:52:31 AM 32.4714 -80.3808 34° Northeast 423 487 37,000  Level Jacksonville Center
Thu 10:53:31 AM 32.5681 -80.3019 35° Northeast 423 487 37,000  Level Jacksonville Center
Thu 10:54:31 AM 32.6667 -80.2225 34° Northeast 423 487 37,000  Level Jacksonville Center
Thu 10:55:31 AM 32.7650 -80.1406 35° Northeast 423 487 37,000  Level Jacksonville Center
Thu 10:56:31 AM 32.8656 -80.0608 34° Northeast 428 493 37,000  Level Jacksonville Center
Thu 10:57:31 AM 32.9594 -79.9711 39° Northeast 428 493 37,000  Level Jacksonville Center
Thu 10:58:31 AM 33.0553 -79.8789 39° Northeast 433 498 37,000  Level Jacksonville Center
Thu 10:59:31 AM 33.1411 -79.7992 38° Northeast 433 498 37,000  Level Jacksonville Center
Thu 11:00:31 AM 33.2328 -79.7067 40° Northeast 433 498 37,000 -250 Level Jacksonville Center
Thu 11:01:31 AM 33.3264 -79.6186 38° Northeast 433 498 36,500 -700 Descending Jacksonville Center
Thu 11:02:31 AM 33.4222 -79.5256 39° Northeast 433 498 35,600 -1,071 Descending Jacksonville Center
Thu 11:04:47 AM 33.6342 -79.3153 40° Northeast 440 506 33,000 -796 Descending Washington Center
Thu 11:05:47 AM 33.7286 -79.2219 39° Northeast 435 501 33,000  Level Washington Center
Thu 11:06:47 AM 33.8253 -79.1289 39° Northeast 440 506 33,000  Level Washington Center
Thu 11:07:47 AM 33.9242 -79.0303 40° Northeast 440 506 33,000  Level Washington Center
Thu 11:08:47 AM 34.0208 -78.9367 39° Northeast 440 506 33,000  Level Washington Center
Thu 11:09:47 AM 34.1194 -78.8403 39° Northeast 440 506 33,000  Level Washington Center
Thu 11:10:47 AM 34.2158 -78.7436 40° Northeast 440 506 33,000  Level Washington Center
Thu 11:11:47 AM 34.3122 -78.6469 40° Northeast 440 506 33,000  Level Washington Center
Thu 11:12:47 AM 34.4150 -78.5425 40° Northeast 435 501 33,000  Level Washington Center
Thu 11:13:47 AM 34.5111 -78.4475 39° Northeast 435 501 33,000  Level Washington Center
Thu 11:14:47 AM 34.6031 -78.3550 40° Northeast 435 501 33,000  Level Washington Center
Thu 11:15:47 AM 34.6992 -78.2572 40° Northeast 435 501 33,000  Level Washington Center
Thu 11:16:47 AM 34.7931 -78.1617 40° Northeast 435 501 33,000  Level Washington Center
Thu 11:17:47 AM 34.8744 -78.0706 43° Northeast 435 501 33,000  Level Washington Center
Thu 11:18:47 AM 34.9703 -77.9694 41° Northeast 440 506 33,000 -1,100 Level Washington Center
Thu 11:19:47 AM 35.0681 -77.8733 39° Northeast 445 512 30,800 -2,300 Descending Washington Center
Thu 11:20:47 AM 35.1597 -77.7744 41° Northeast 440 506 28,400 -2,600 Descending Washington Center
Thu 11:21:47 AM 35.2594 -77.6728 40° Northeast 433 498 25,600 -2,450 Descending Washington Center
Thu 11:22:47 AM 35.3444 -77.5833 41° Northeast 413 475 23,500 -1,300 Descending Washington Center
Thu 11:23:47 AM 35.4375 -77.5117 32° Northeast 402 463 23,000 -250 Descending Washington Center
Thu 11:24:47 AM 35.5344 -77.4503 27° Northeast 389 448 23,000  Level Washington Center
Thu 11:25:47 AM 35.6314 -77.3808 30° Northeast 389 448 23,000  Level Washington Center
Thu 11:26:47 AM 35.7264 -77.3192 28° Northeast 389 448 23,000  Level Washington Center
Thu 11:27:47 AM 35.8253 -77.2494 30° Northeast 394 453 23,000  Level Washington Center
Thu 11:28:47 AM 35.9222 -77.1847 28° Northeast 399 459 23,000  Level Washington Center
Thu 11:29:47 AM 36.0147 -77.1225 29° Northeast 394 453 23,000 -750 Level Washington Center
Thu 11:30:47 AM 36.0992 -77.0625 30° Northeast 394 453 21,500 -1,700 Descending Washington Center
Thu 11:31:47 AM 36.1894 -76.9997 29° Northeast 380 437 19,600 -1,750 Descending Washington Center
Thu 11:32:47 AM 36.2778 -76.9369 30° Northeast 369 425 18,000 -1,981 Descending Washington Center
Thu 11:33:30 AM 36.3472 -76.8942 26° Northeast 355 409 16,200 -2,300 Descending Washington Center
Thu 11:33:47 AM 36.3642 -76.8764 40° Northeast 357 411 15,700 -2,167 Descending Washington Center
Thu 11:34:06 AM 36.3956 -76.8486 35° Northeast 357 411 14,900 -2,000 Descending Washington Center
Thu 11:34:47 AM 36.4339 -76.7925 50° Northeast 351 404 13,700 -2,066 Descending Washington Center
Thu 11:35:07 AM 36.4633 -76.7619 40° Northeast 348 400 12,800 -2,000 Descending Washington Center
Thu 11:35:47 AM 36.5014 -76.7056 50° Northeast 346 398 11,700 -1,672 Descending Washington Center
Thu 11:36:08 AM 36.5206 -76.6697 56° Northeast 330 380 11,100 -1,500 Descending Washington Center
Thu 11:36:47 AM 36.5461 -76.6106 62° Northeast 334 384 10,200 -1,636 Descending Washington Center
Thu 11:37:14 AM 36.5736 -76.5592 56° Northeast 316 364 9,300 -1,400 Descending Washington Center
Thu 11:37:47 AM 36.5947 -76.5181 57° Northeast 321 369 8,800 -1,343 Descending Washington Center
Thu 11:38:21 AM 36.6203 -76.4639 60° Northeast 297 342 7,800 -1,500 Descending Washington Center
Thu 11:38:47 AM 36.6372 -76.4331 56° Northeast 303 349 7,300 -1,418 Descending Washington Center
Thu 11:39:16 AM 36.6708 -76.3947 42° Northeast 291 335 6,500 -1,300 Descending Washington Center
Thu 11:39:47 AM 36.6939 -76.3611 49° Northeast 292 336 6,000 -1,200 Descending Washington Center
Thu 11:40:16 AM 36.7256 -76.3253 42° Northeast 277 319 5,300 -1,000 Descending Washington Center
Thu 11:40:47 AM 36.7444 -76.2969 50° Northeast 279 321 5,000 -295 Descending Washington Center
Thu 11:41:17 AM 36.7758 -76.2636 40° Northeast 233 268 5,000  Level Washington Center
Thu 11:41:47 AM 36.7947 -76.2378 48° Northeast 255 293 5,000  Level Washington Center
Thu 11:42:18 AM 36.8242 -76.2094 38° Northeast 232 267 5,000  Level Washington Center
Thu 11:42:47 AM 36.8389 -76.1836 55° Northeast 235 270 5,000  Level Washington Center
Thu 11:43:19 AM 36.8683 -76.1528 40° Northeast 234 269 5,000 -364 Level Washington Center
Thu 11:44:26 AM 36.9206 -76.0908 43° Northeast 230 265 4,400 -537 Descending Washington Center

Login

Don't have an account? Register now (free) for customized features, flight alerts, and more!